createdAt,value
2014-06-21T00:00:13.805Z,15.34
2014-06-21T00:01:18.791Z,15.64
2014-06-21T00:02:23.480Z,15.66
2014-06-21T00:03:28.154Z,15.36
2014-06-21T00:04:32.844Z,15.41
2014-06-21T00:05:37.517Z,15.34
2014-06-21T00:06:42.504Z,15.28
2014-06-21T00:07:47.178Z,15.3
2014-06-21T00:08:52.148Z,15.25
2014-06-21T00:09:56.854Z,15.14
2014-06-21T00:11:01.826Z,15.08
2014-06-21T00:12:06.812Z,14.98
2014-06-21T00:13:11.487Z,15.04
2014-06-21T00:14:15.488Z,14.88
2014-06-21T00:15:20.161Z,15.48
2014-06-21T00:16:24.851Z,15.34
2014-06-21T00:17:29.525Z,15.29
2014-06-21T00:18:34.512Z,15.22
2014-06-21T00:19:39.186Z,15.42
2014-06-21T00:20:44.172Z,15.15
2014-06-21T00:21:48.846Z,15.06
2014-06-21T00:22:53.535Z,15.02
2014-06-21T00:23:58.209Z,15.18
2014-06-21T00:25:03.196Z,15.14
2014-06-21T00:26:07.870Z,15.2
2014-06-21T00:27:12.559Z,15.4
2014-06-21T00:28:17.546Z,15.7
2014-06-21T00:29:22.220Z,15.58
2014-06-21T00:30:26.894Z,15.49
2014-06-21T00:31:31.880Z,15.62
2014-06-21T00:32:36.569Z,15.25
2014-06-21T00:33:41.540Z,15.27
2014-06-21T00:34:46.230Z,15.6
2014-06-21T00:35:51.216Z,15.64
2014-06-21T00:36:55.890Z,15.58
2014-06-21T00:38:00.877Z,15.38
2014-06-21T00:39:05.551Z,15.17
2014-06-21T00:40:10.538Z,15.06
2014-06-21T00:41:15.508Z,14.86
2014-06-21T00:42:20.495Z,14.83
2014-06-21T00:43:25.169Z,14.83
2014-06-21T00:44:29.857Z,14.89
2014-06-21T00:45:34.828Z,14.76
2014-06-21T00:46:39.518Z,14.8
2014-06-21T00:47:44.192Z,14.46
2014-06-21T00:48:48.882Z,14.59
2014-06-21T00:49:53.571Z,14.75
2014-06-21T00:50:58.245Z,14.78
2014-06-21T00:52:03.528Z,14.66
2014-06-21T00:53:08.530Z,14.8
2014-06-21T00:54:13.501Z,14.76
2014-06-21T00:55:18.191Z,14.71
2014-06-21T00:56:22.864Z,14.62
2014-06-21T00:57:27.554Z,14.72
2014-06-21T00:58:32.540Z,14.72
2014-06-21T00:59:37.511Z,14.82
2014-06-21T01:00:42.497Z,14.89
2014-06-21T01:01:47.171Z,14.92
2014-06-21T01:02:51.861Z,15.16
2014-06-21T01:03:56.832Z,14.98
2014-06-21T01:05:01.521Z,14.8
2014-06-21T01:06:06.197Z,14.63
2014-06-21T01:07:10.887Z,14.66
2014-06-21T01:08:15.560Z,14.62
2014-06-21T01:09:20.234Z,14.66
2014-06-21T01:10:25.236Z,15.01
2014-06-21T01:11:30.207Z,15.04
2014-06-21T01:12:35.193Z,14.73
2014-06-21T01:13:39.866Z,14.64
2014-06-21T01:14:44.854Z,14.64
2014-06-21T01:15:49.823Z,14.58
2014-06-21T01:16:54.513Z,14.57
2014-06-21T01:17:59.499Z,14.54
2014-06-21T01:19:04.473Z,14.46
2014-06-21T01:20:09.161Z,14.55
2014-06-21T01:21:14.163Z,14.56
2014-06-21T01:22:19.150Z,14.5
2014-06-21T01:23:23.824Z,14.5
2014-06-21T01:24:28.810Z,14.82
2014-06-21T01:25:33.500Z,15.28
2014-06-21T01:26:38.470Z,15.25
2014-06-21T01:27:43.457Z,15.27
2014-06-21T01:28:48.147Z,15.22
2014-06-21T01:29:52.820Z,15.02
2014-06-21T01:30:57.807Z,14.88
2014-06-21T01:32:02.481Z,14.78
2014-06-21T01:33:07.171Z,14.88
2014-06-21T01:34:11.845Z,15.07
2014-06-21T01:35:16.519Z,15.24
2014-06-21T01:36:21.208Z,15.18
2014-06-21T01:37:25.882Z,15.16
2014-06-21T01:38:30.868Z,15.18
2014-06-21T01:39:35.541Z,15.3
2014-06-21T01:40:40.231Z,15.4
2014-06-21T01:41:45.201Z,15.09
2014-06-21T01:42:50.188Z,14.68
2014-06-21T01:43:54.862Z,14.59
2014-06-21T01:44:59.536Z,14.84
2014-06-21T01:46:04.524Z,14.7
2014-06-21T01:47:09.495Z,14.89
2014-06-21T01:48:14.184Z,15.13
2014-06-21T01:49:19.171Z,15.27
2014-06-21T01:50:23.844Z,15.14
2014-06-21T01:51:28.534Z,15.1
2014-06-21T01:52:33.207Z,14.86
2014-06-21T01:53:38.193Z,14.8
2014-06-21T01:54:43.180Z,15.02
2014-06-21T01:55:48.150Z,15.13
2014-06-21T01:56:53.137Z,15.14
2014-06-21T01:57:57.811Z,15.26
2014-06-21T01:59:02.797Z,15.13
2014-06-21T02:00:07.488Z,15.14
2014-06-21T02:01:12.459Z,15.29
2014-06-21T02:02:17.149Z,15.45
2014-06-21T02:03:21.822Z,15.42
2014-06-21T02:04:27.105Z,15.25
2014-06-21T02:05:31.779Z,15.14
2014-06-21T02:06:36.468Z,14.9
2014-06-21T02:07:41.158Z,14.9
2014-06-21T02:08:46.129Z,15.05
2014-06-21T02:09:50.818Z,15
2014-06-21T02:10:55.492Z,15
2014-06-21T02:12:00.166Z,15.09
2014-06-21T02:13:05.153Z,15.11
2014-06-21T02:14:09.827Z,15.02
2014-06-21T02:15:14.516Z,15.1
2014-06-21T02:16:19.190Z,15.06
2014-06-21T02:17:23.864Z,14.58
2014-06-21T02:18:28.851Z,14.45
2014-06-21T02:19:33.523Z,14.68
2014-06-21T02:20:38.214Z,14.84
2014-06-21T02:21:42.888Z,14.9
2014-06-21T02:22:47.577Z,14.94
2014-06-21T02:23:52.251Z,15.03
2014-06-21T02:24:56.941Z,14.98
2014-06-21T02:26:01.630Z,14.9
2014-06-21T02:27:06.603Z,14.46
2014-06-21T02:28:11.292Z,14.59
2014-06-21T02:29:16.262Z,14.82
2014-06-21T02:30:21.249Z,14.81
2014-06-21T02:31:26.235Z,14.96
2014-06-21T02:32:30.924Z,14.86
2014-06-21T02:33:35.896Z,14.68
2014-06-21T02:34:40.586Z,14.32
2014-06-21T02:35:45.259Z,14.16
2014-06-21T02:36:50.245Z,14.2
2014-06-21T02:37:54.919Z,14.18
2014-06-21T02:38:59.608Z,14.44
2014-06-21T02:40:04.282Z,14.56
2014-06-21T02:41:09.271Z,14.65
2014-06-21T02:42:13.943Z,14.55
2014-06-21T02:43:18.633Z,14.59
2014-06-21T02:44:23.605Z,14.7
2014-06-21T02:45:28.590Z,14.68
2014-06-21T02:46:33.265Z,14.32
2014-06-21T02:47:37.938Z,14.13
2014-06-21T02:48:42.925Z,14.07
2014-06-21T02:49:47.599Z,13.88
2014-06-21T02:50:52.289Z,13.97
2014-06-21T02:51:56.962Z,13.96
2014-06-21T02:53:01.651Z,13.78
2014-06-21T02:54:06.326Z,14.18
2014-06-21T02:55:11.015Z,14.24
2014-06-21T02:56:15.986Z,14.29
2014-06-21T02:57:20.676Z,14
2014-06-21T02:58:25.349Z,13.88
2014-06-21T02:59:30.039Z,13.88
2014-06-21T03:00:35.322Z,13.84
2014-06-21T03:01:40.294Z,13.76
2014-06-21T03:02:45.279Z,13.82
2014-06-21T03:03:49.969Z,13.78
2014-06-21T03:04:54.940Z,13.94
2014-06-21T03:05:59.629Z,14.04
2014-06-21T03:07:04.615Z,14.05
2014-06-21T03:08:09.290Z,14.03
2014-06-21T03:09:14.574Z,14.01
2014-06-21T03:10:19.247Z,13.87
2014-06-21T03:11:23.921Z,13.82
2014-06-21T03:12:28.908Z,13.86
2014-06-21T03:13:33.878Z,13.93
2014-06-21T03:14:38.865Z,13.95
2014-06-21T03:15:43.539Z,13.99
2014-06-21T03:16:48.228Z,13.87
2014-06-21T03:17:53.199Z,13.74
2014-06-21T03:18:57.888Z,13.99
2014-06-21T03:20:02.562Z,14.14
2014-06-21T03:21:07.252Z,14.18
2014-06-21T03:22:12.225Z,14.42
2014-06-21T03:23:16.913Z,14.58
2014-06-21T03:24:21.884Z,14.47
2014-06-21T03:25:26.558Z,14.5
2014-06-21T03:26:31.247Z,14.38
2014-06-21T03:27:35.921Z,14.42
2014-06-21T03:28:40.907Z,14.58
2014-06-21T03:29:45.893Z,14.5
2014-06-21T03:30:50.567Z,14.37
2014-06-21T03:31:55.554Z,14.57
2014-06-21T03:33:00.540Z,14.65
2014-06-21T03:34:05.510Z,14.44
2014-06-21T03:35:10.202Z,14.56
2014-06-21T03:36:14.891Z,14.6
2014-06-21T03:37:19.863Z,14.68
2014-06-21T03:38:24.552Z,14.42
2014-06-21T03:39:29.522Z,14.44
2014-06-21T03:40:34.212Z,14.37
2014-06-21T03:41:39.182Z,14.57
2014-06-21T03:42:43.872Z,14.52
2014-06-21T03:43:48.546Z,14.43
2014-06-21T03:44:53.235Z,14.59
2014-06-21T03:45:57.909Z,14.61
2014-06-21T03:47:02.599Z,14.69
2014-06-21T03:48:07.272Z,14.62
2014-06-21T03:49:12.261Z,14.72
2014-06-21T03:50:16.949Z,14.77
2014-06-21T03:51:21.623Z,14.88
2014-06-21T03:52:26.313Z,14.34
2014-06-21T03:53:30.987Z,14.44
2014-06-21T03:54:35.676Z,14.58
2014-06-21T03:55:40.647Z,14.14
2014-06-21T03:56:45.633Z,14.09
2014-06-21T03:57:50.604Z,14.44
2014-06-21T03:58:55.590Z,14.42
2014-06-21T04:00:00.290Z,14.51
2014-06-21T04:01:05.315Z,14.67
2014-06-21T04:02:10.084Z,14.64
2014-06-21T04:03:14.797Z,14.64
2014-06-21T04:04:19.510Z,14.56
2014-06-21T04:05:24.511Z,14.58
2014-06-21T04:06:29.496Z,14.56
2014-06-21T04:07:34.198Z,14.64
2014-06-21T04:08:39.183Z,14.34
2014-06-21T04:09:43.881Z,14.31
2014-06-21T04:10:48.560Z,14.16
2014-06-21T04:11:53.255Z,14.3
2014-06-21T04:12:58.231Z,14.47
2014-06-21T04:14:03.222Z,14.46
2014-06-21T04:15:07.899Z,14.62
2014-06-21T04:16:12.590Z,14.84
2014-06-21T04:17:17.267Z,14.94
2014-06-21T04:18:22.255Z,14.62
2014-06-21T04:19:27.227Z,14.48
2014-06-21T04:20:32.215Z,14.53
2014-06-21T04:21:36.890Z,14.88
2014-06-21T04:22:41.877Z,15.05
2014-06-21T04:23:46.849Z,15.12
2014-06-21T04:24:51.836Z,15.06
2014-06-21T04:25:56.509Z,15.14
2014-06-21T04:27:01.183Z,15.24
2014-06-21T04:28:06.171Z,15.26
2014-06-21T04:29:11.158Z,15.1
2014-06-21T04:30:15.831Z,15.22
2014-06-21T04:31:20.521Z,15.25
2014-06-21T04:32:25.196Z,14.88
2014-06-21T04:33:30.478Z,15.04
2014-06-21T04:34:35.168Z,15.24
2014-06-21T04:35:40.138Z,15.15
2014-06-21T04:36:44.828Z,15.29
2014-06-21T04:37:49.813Z,15.24
2014-06-21T04:38:54.488Z,15.35
2014-06-21T04:39:59.474Z,15.27
2014-06-21T04:41:04.148Z,15.48
2014-06-21T04:42:08.838Z,15.73
2014-06-21T04:43:13.528Z,15.56
2014-06-21T04:44:18.202Z,15.48
2014-06-21T04:45:22.892Z,15.58
2014-06-21T04:46:27.862Z,15.34
2014-06-21T04:47:32.552Z,15.61
2014-06-21T04:48:37.226Z,15.9
2014-06-21T04:49:41.900Z,15.86
2014-06-21T04:50:46.886Z,16
2014-06-21T04:51:51.560Z,16.01
2014-06-21T04:52:56.545Z,16.28
2014-06-21T04:54:01.220Z,16.19
2014-06-21T04:55:05.909Z,16.26
2014-06-21T04:56:10.583Z,16.2
2014-06-21T04:57:15.587Z,16.32
2014-06-21T04:58:20.573Z,16.43
2014-06-21T04:59:25.247Z,16.63
2014-06-21T05:00:29.936Z,16.68
2014-06-21T05:01:34.907Z,16.49
2014-06-21T05:02:39.893Z,16.02
2014-06-21T05:03:43.911Z,16.2
2014-06-21T05:04:48.584Z,16.54
2014-06-21T05:05:53.571Z,16.71
2014-06-21T05:06:58.260Z,16.9
2014-06-21T05:08:02.935Z,17.01
2014-06-21T05:09:07.920Z,16.96
2014-06-21T05:10:12.611Z,17.04
2014-06-21T05:11:17.581Z,17.08
2014-06-21T05:12:22.271Z,17.1
2014-06-21T05:13:27.242Z,17.09
2014-06-21T05:14:31.931Z,16.93
2014-06-21T05:15:36.902Z,16.94
2014-06-21T05:16:41.591Z,16.78
2014-06-21T05:17:46.562Z,17.08
2014-06-21T05:18:51.253Z,17.29
2014-06-21T05:19:55.925Z,16.9
2014-06-21T05:21:00.615Z,17.44
2014-06-21T05:22:05.289Z,17.5
2014-06-21T05:23:10.276Z,17.88
2014-06-21T05:24:15.248Z,17.87
2014-06-21T05:25:20.234Z,17.63
2014-06-21T05:26:24.908Z,17.9
2014-06-21T05:27:29.598Z,17.64
2014-06-21T05:28:34.272Z,17.2
2014-06-21T05:29:38.960Z,17.45
2014-06-21T05:30:43.651Z,17.7
2014-06-21T05:31:48.340Z,17.77
2014-06-21T05:32:53.030Z,17.89
2014-06-21T05:33:57.718Z,17.94
2014-06-21T05:35:02.705Z,18.11
2014-06-21T05:36:07.691Z,18.09
2014-06-21T05:37:12.662Z,18.3
2014-06-21T05:38:17.353Z,18.24
2014-06-21T05:39:22.043Z,18.24
2014-06-21T05:40:27.029Z,18.34
2014-06-21T05:41:31.718Z,18.56
2014-06-21T05:42:36.688Z,18.66
2014-06-21T05:43:41.378Z,18.62
2014-06-21T05:44:46.053Z,18.67
2014-06-21T05:45:50.741Z,18.85
2014-06-21T05:46:55.432Z,18.84
2014-06-21T05:48:00.105Z,18.33
2014-06-21T05:49:04.794Z,18.44
2014-06-21T05:50:09.483Z,18.48
2014-06-21T05:51:14.157Z,18.82
2014-06-21T05:52:19.146Z,18.94
2014-06-21T05:53:23.820Z,18.86
2014-06-21T05:54:28.806Z,19.02
2014-06-21T05:55:33.480Z,19.34
2014-06-21T05:56:38.169Z,19.56
2014-06-21T05:57:43.140Z,19.83
2014-06-21T05:58:47.829Z,19.86
2014-06-21T05:59:52.518Z,19.82
2014-06-21T06:00:57.208Z,19.74
2014-06-21T06:02:02.195Z,19.8
2014-06-21T06:03:06.868Z,19.9
2014-06-21T06:04:11.557Z,20.17
2014-06-21T06:05:16.858Z,20.13
2014-06-21T06:06:21.845Z,20.34
2014-06-21T06:07:26.518Z,20.48
2014-06-21T06:08:31.208Z,20.69
2014-06-21T06:09:35.897Z,20.73
2014-06-21T06:10:40.899Z,21.31
2014-06-21T06:11:45.588Z,22.73
2014-06-21T06:12:50.262Z,24.42
2014-06-21T06:13:55.248Z,26.39
2014-06-21T06:14:59.938Z,27.34
2014-06-21T06:16:04.925Z,27.73
2014-06-21T06:17:09.895Z,28.94
2014-06-21T06:18:14.601Z,29.83
2014-06-21T06:19:19.586Z,29.42
2014-06-21T06:20:24.558Z,29.94
2014-06-21T06:21:29.544Z,29.56
2014-06-21T06:22:34.545Z,30.42
2014-06-21T06:23:39.235Z,30.64
2014-06-21T06:24:44.223Z,30.21
2014-06-21T06:25:49.210Z,31.26
2014-06-21T06:26:53.884Z,30.85
2014-06-21T06:27:58.589Z,31.41
2014-06-21T06:29:03.575Z,31.58
2014-06-21T06:30:08.264Z,31.64
2014-06-21T06:31:13.250Z,32.01
2014-06-21T06:32:17.939Z,32.31
2014-06-21T06:33:22.926Z,32.59
2014-06-21T06:34:27.912Z,32.16
2014-06-21T06:35:32.899Z,31.11
2014-06-21T06:36:37.886Z,28.9
2014-06-21T06:37:42.575Z,26.76
2014-06-21T06:38:47.266Z,26.2
2014-06-21T06:39:51.955Z,25.6
2014-06-21T06:40:56.645Z,25.29
2014-06-21T06:42:01.334Z,24.57
2014-06-21T06:43:06.024Z,24.39
2014-06-21T06:44:11.010Z,23.87
2014-06-21T06:45:15.699Z,21.92
2014-06-21T06:46:20.686Z,22.1
2014-06-21T06:47:25.375Z,22.61
2014-06-21T06:48:30.064Z,22.65
2014-06-21T06:49:34.754Z,21.52
2014-06-21T06:50:39.443Z,21.53
2014-06-21T06:51:44.432Z,21.72
2014-06-21T06:52:49.121Z,21.71
2014-06-21T06:53:53.795Z,21.91
2014-06-21T06:54:58.484Z,21.15
2014-06-21T06:56:03.173Z,21.2
2014-06-21T06:57:08.160Z,21.33
2014-06-21T06:58:12.849Z,21.5
2014-06-21T06:59:17.524Z,21.52
2014-06-21T07:00:22.213Z,21.55
2014-06-21T07:01:27.199Z,20.9
2014-06-21T07:02:31.889Z,21.03
2014-06-21T07:03:36.875Z,21.38
2014-06-21T07:04:41.564Z,21.44
2014-06-21T07:05:46.240Z,21.28
2014-06-21T07:06:50.929Z,21.17
2014-06-21T07:07:55.916Z,21.3
2014-06-21T07:09:00.605Z,21.6
2014-06-21T07:10:05.295Z,21.9
2014-06-21T07:11:09.984Z,21.79
2014-06-21T07:12:14.971Z,21.87
2014-06-21T07:13:19.940Z,20.92
2014-06-21T07:14:24.928Z,21.34
2014-06-21T07:15:29.617Z,21.64
2014-06-21T07:16:34.306Z,21.97
2014-06-21T07:17:38.995Z,22.04
2014-06-21T07:18:43.984Z,22.1
2014-06-21T07:19:48.657Z,22.08
2014-06-21T07:20:53.347Z,22.32
2014-06-21T07:21:58.333Z,22.23
2014-06-21T07:23:03.303Z,22.06
2014-06-21T07:24:07.994Z,21.84
2014-06-21T07:25:12.683Z,21.86
2014-06-21T07:26:17.965Z,22.03
2014-06-21T07:27:22.640Z,22.21
2014-06-21T07:28:27.329Z,22.43
2014-06-21T07:29:32.018Z,22.52
2014-06-21T07:30:36.692Z,22.56
2014-06-21T07:31:41.679Z,22.13
2014-06-21T07:32:46.369Z,22.12
2014-06-21T07:33:51.355Z,23.38
2014-06-21T07:34:56.343Z,24.08
2014-06-21T07:36:01.313Z,24.22
2014-06-21T07:37:06.003Z,23.88
2014-06-21T07:38:10.692Z,23.94
2014-06-21T07:39:15.382Z,23.87
2014-06-21T07:40:20.071Z,24.14
2014-06-21T07:41:25.057Z,23.48
2014-06-21T07:42:29.731Z,22.57
2014-06-21T07:43:34.420Z,22.02
2014-06-21T07:44:39.408Z,22.17
2014-06-21T07:45:44.393Z,22.52
2014-06-21T07:46:49.083Z,22.88
2014-06-21T07:47:54.368Z,22.97
2014-06-21T07:48:59.338Z,22.93
2014-06-21T07:50:04.028Z,22.78
2014-06-21T07:51:08.717Z,22.74
2014-06-21T07:52:13.704Z,23.06
2014-06-21T07:53:18.675Z,23.17
2014-06-21T07:54:23.364Z,23.33
2014-06-21T07:55:28.054Z,23.31
2014-06-21T07:56:32.743Z,23.44
2014-06-21T07:57:37.433Z,23.33
2014-06-21T07:58:42.105Z,23.1
2014-06-21T07:59:46.796Z,22.82
2014-06-21T08:00:51.485Z,22.62
2014-06-21T08:01:56.472Z,21.79
2014-06-21T08:03:01.443Z,22.25
2014-06-21T08:04:06.131Z,22.16
2014-06-21T08:05:10.822Z,22.17
2014-06-21T08:06:15.511Z,22.11
2014-06-21T08:07:20.184Z,22.44
2014-06-21T08:08:24.875Z,21.8
2014-06-21T08:09:29.565Z,21.93
2014-06-21T08:10:34.551Z,22.61
2014-06-21T08:11:39.225Z,22.56
2014-06-21T08:12:43.915Z,22.61
2014-06-21T08:13:48.604Z,23.05
2014-06-21T08:14:53.887Z,23.18
2014-06-21T08:15:58.577Z,23.01
2014-06-21T08:17:03.251Z,23.14
2014-06-21T08:18:07.940Z,22.43
2014-06-21T08:19:12.927Z,21.96
2014-06-21T08:20:17.913Z,21.86
2014-06-21T08:21:22.603Z,22.29
2014-06-21T08:22:27.278Z,22.73
2014-06-21T08:23:31.967Z,22.78
2014-06-21T08:24:36.656Z,22.86
2014-06-21T08:25:41.627Z,22.94
2014-06-21T08:26:46.614Z,21.9
2014-06-21T08:27:51.600Z,21.3
2014-06-21T08:28:56.586Z,21.52
2014-06-21T08:30:01.276Z,22.12
2014-06-21T08:31:06.262Z,22.77
2014-06-21T08:32:10.935Z,22.85
2014-06-21T08:33:15.938Z,22.6
2014-06-21T08:34:20.924Z,22.88
2014-06-21T08:35:25.912Z,23.3
2014-06-21T08:36:30.586Z,23.66
2014-06-21T08:37:35.275Z,23.54
2014-06-21T08:38:39.965Z,23.22
2014-06-21T08:39:44.653Z,23.34
2014-06-21T08:40:49.625Z,23.29
2014-06-21T08:41:54.314Z,23.5
2014-06-21T08:42:59.300Z,23.6
2014-06-21T08:44:03.990Z,23.51
2014-06-21T08:45:08.664Z,23.23
2014-06-21T08:46:13.650Z,23.32
2014-06-21T08:47:18.636Z,23.18
2014-06-21T08:48:23.325Z,23.06
2014-06-21T08:49:28.017Z,23.15
2014-06-21T08:50:32.706Z,23.57
2014-06-21T08:51:37.380Z,22.92
2014-06-21T08:52:42.070Z,22.79
2014-06-21T08:53:46.759Z,22.62
2014-06-21T08:54:51.449Z,22.43
2014-06-21T08:55:56.419Z,22.64
2014-06-21T08:57:01.124Z,22.78
2014-06-21T08:58:05.813Z,22.98
2014-06-21T08:59:10.785Z,22.94
2014-06-21T09:00:15.473Z,23
2014-06-21T09:01:20.460Z,22.98
2014-06-21T09:02:25.448Z,23.05
2014-06-21T09:03:30.122Z,23.16
2014-06-21T09:04:34.812Z,23.1
2014-06-21T09:05:39.501Z,23.32
2014-06-21T09:06:44.487Z,23
2014-06-21T09:07:49.458Z,22.96
2014-06-21T09:08:54.163Z,23.14
2014-06-21T09:09:59.446Z,23.32
2014-06-21T09:11:04.135Z,23.48
2014-06-21T09:12:08.809Z,23.35
2014-06-21T09:13:13.499Z,23.6
2014-06-21T09:14:18.188Z,22.33
2014-06-21T09:15:23.174Z,22.43
2014-06-21T09:16:27.849Z,22.58
2014-06-21T09:17:32.553Z,22.7
2014-06-21T09:18:37.229Z,22.88
2014-06-21T09:19:41.919Z,23
2014-06-21T09:20:46.593Z,22.66
2014-06-21T09:21:51.282Z,22.72
2014-06-21T09:22:55.973Z,22.12
2014-06-21T09:24:00.645Z,22.1
2014-06-21T09:25:05.335Z,22.5
2014-06-21T09:26:10.321Z,22.96
2014-06-21T09:27:15.012Z,22.88
2014-06-21T09:28:19.700Z,23.1
2014-06-21T09:29:24.375Z,23.5
2014-06-21T09:30:29.065Z,23.56
2014-06-21T09:31:34.050Z,23.65
2014-06-21T09:32:38.741Z,23.74
2014-06-21T09:33:44.024Z,23.59
2014-06-21T09:34:48.025Z,23.88
2014-06-21T09:35:52.714Z,23.86
2014-06-21T09:36:57.685Z,24
2014-06-21T09:38:02.375Z,23.8
2014-06-21T09:39:07.064Z,23.75
2014-06-21T09:40:11.754Z,23.63
2014-06-21T09:41:16.741Z,23.68
2014-06-21T09:42:21.711Z,23.76
2014-06-21T09:43:26.697Z,23.85
2014-06-21T09:44:31.388Z,23.88
2014-06-21T09:45:36.373Z,23.7
2014-06-21T09:46:41.062Z,23.76
2014-06-21T09:47:46.051Z,24.11
2014-06-21T09:48:50.740Z,24.22
2014-06-21T09:49:55.414Z,22.97
2014-06-21T09:51:00.103Z,23.05
2014-06-21T09:52:04.792Z,23.93
2014-06-21T09:53:09.483Z,24.3
2014-06-21T09:54:14.469Z,24.4
2014-06-21T09:55:19.143Z,24.17
2014-06-21T09:56:24.129Z,24.02
2014-06-21T09:57:29.116Z,24.08
2014-06-21T09:58:33.790Z,23.94
2014-06-21T09:59:38.776Z,22.78
2014-06-21T10:00:43.465Z,22.12
2014-06-21T10:01:48.748Z,22.53
2014-06-21T10:02:53.437Z,22.92
2014-06-21T10:03:58.129Z,22.98
2014-06-21T10:05:02.818Z,23.06
2014-06-21T10:06:07.789Z,23.08
2014-06-21T10:07:12.478Z,23.2
2014-06-21T10:08:17.465Z,23.54
2014-06-21T10:09:22.451Z,23.49
2014-06-21T10:10:27.422Z,23.29
2014-06-21T10:11:32.127Z,23.03
2014-06-21T10:12:36.801Z,23.21
2014-06-21T10:13:41.490Z,23.16
2014-06-21T10:14:46.179Z,23.64
2014-06-21T10:15:50.869Z,24.33
2014-06-21T10:16:55.543Z,24.46
2014-06-21T10:18:00.233Z,25.05
2014-06-21T10:19:04.922Z,25.18
2014-06-21T10:20:09.612Z,25.32
2014-06-21T10:21:14.301Z,25.7
2014-06-21T10:22:19.288Z,25.55
2014-06-21T10:23:24.274Z,25.66
2014-06-21T10:24:28.964Z,25.34
2014-06-21T10:25:33.952Z,25.19
2014-06-21T10:26:38.922Z,25.33
2014-06-21T10:27:43.908Z,25.17
2014-06-21T10:28:48.598Z,24.94
2014-06-21T10:29:53.881Z,25.36
2014-06-21T10:30:58.570Z,25.6
2014-06-21T10:32:03.557Z,24.93
2014-06-21T10:33:08.246Z,24.73
2014-06-21T10:34:12.936Z,25.02
2014-06-21T10:35:17.922Z,24.94
2014-06-21T10:36:22.907Z,24.88
2014-06-21T10:37:27.597Z,24.76
2014-06-21T10:38:32.274Z,24.8
2014-06-21T10:39:36.963Z,24.72
2014-06-21T10:40:41.653Z,24.78
2014-06-21T10:41:46.639Z,25.01
2014-06-21T10:42:51.329Z,25.02
2014-06-21T10:43:56.315Z,25.24
2014-06-21T10:45:01.005Z,25.56
2014-06-21T10:46:05.974Z,25.33
2014-06-21T10:47:10.679Z,24.78
2014-06-21T10:48:15.666Z,25.17
2014-06-21T10:49:20.354Z,25.24
2014-06-21T10:50:25.638Z,24.67
2014-06-21T10:51:30.314Z,24.84
2014-06-21T10:52:35.003Z,24.89
2014-06-21T10:53:39.692Z,24.85
2014-06-21T10:54:44.398Z,24.98
2014-06-21T10:55:49.087Z,25.01
2014-06-21T10:56:53.777Z,25.14
2014-06-21T10:57:58.763Z,25.38
2014-06-21T10:59:03.749Z,25.5
2014-06-21T11:00:08.736Z,25.99
2014-06-21T11:01:13.425Z,25.7
2014-06-21T11:02:18.412Z,25.28
2014-06-21T11:03:23.101Z,25.2
2014-06-21T11:04:27.791Z,25.29
2014-06-21T11:05:32.778Z,25.19
2014-06-21T11:06:37.467Z,24.88
2014-06-21T11:07:42.751Z,24.85
2014-06-21T11:08:47.737Z,25.07
2014-06-21T11:09:52.427Z,25.2
2014-06-21T11:10:57.413Z,24.98
2014-06-21T11:12:02.696Z,24.72
2014-06-21T11:13:07.386Z,24.72
2014-06-21T11:14:12.372Z,24.52
2014-06-21T11:15:17.046Z,24.52
2014-06-21T11:16:21.735Z,24.54
2014-06-21T11:17:26.722Z,24.98
2014-06-21T11:18:31.708Z,24.54
2014-06-21T11:19:36.398Z,24.71
2014-06-21T11:20:41.072Z,24.59
2014-06-21T11:21:45.762Z,24.62
2014-06-21T11:22:50.747Z,24.67
2014-06-21T11:23:55.734Z,24.37
2014-06-21T11:25:00.424Z,24.85
2014-06-21T11:26:05.097Z,24.94
2014-06-21T11:27:09.788Z,24.84
2014-06-21T11:28:14.477Z,24.68
2014-06-21T11:29:19.166Z,24.52
2014-06-21T11:30:24.153Z,24.38
2014-06-21T11:31:29.138Z,24.67
2014-06-21T11:32:34.424Z,25.06
2014-06-21T11:33:39.113Z,24.82
2014-06-21T11:34:43.803Z,25.17
2014-06-21T11:35:48.492Z,25.22
2014-06-21T11:36:53.182Z,25.2
2014-06-21T11:37:57.872Z,25.37
2014-06-21T11:39:02.858Z,25.44
2014-06-21T11:40:07.547Z,25.65
2014-06-21T11:41:12.238Z,25.38
2014-06-21T11:42:17.223Z,25.54
2014-06-21T11:43:21.912Z,24.86
2014-06-21T11:44:26.900Z,25.03
2014-06-21T11:45:31.574Z,24.87
2014-06-21T11:46:35.873Z,25.06
2014-06-21T11:47:40.562Z,24.72
2014-06-21T11:48:45.548Z,24.66
2014-06-21T11:49:50.238Z,24.81
2014-06-21T11:50:54.926Z,25.02
2014-06-21T11:51:59.898Z,24.99
2014-06-21T11:53:04.588Z,25.28
2014-06-21T11:54:09.276Z,25.43
2014-06-21T11:55:13.966Z,25.6
2014-06-21T11:56:18.656Z,25.76
2014-06-21T11:57:22.643Z,25.96
2014-06-21T11:58:27.332Z,25.8
2014-06-21T11:59:32.021Z,25.66
2014-06-21T12:00:37.009Z,25.44
2014-06-21T12:01:41.698Z,24.82
2014-06-21T12:02:46.388Z,24.79
2014-06-21T12:03:51.374Z,24.81
2014-06-21T12:04:56.361Z,24.64
2014-06-21T12:06:01.049Z,25.2
2014-06-21T12:07:05.723Z,25.44
2014-06-21T12:08:10.725Z,25.78
2014-06-21T12:09:15.712Z,25.58
2014-06-21T12:10:20.402Z,25.44
2014-06-21T12:11:25.075Z,25.56
2014-06-21T12:12:30.062Z,25.4
2014-06-21T12:13:34.752Z,25.55
2014-06-21T12:14:39.737Z,25.77
2014-06-21T12:15:44.724Z,25.9
2014-06-21T12:16:49.414Z,25.83
2014-06-21T12:17:54.103Z,25.93
2014-06-21T12:18:59.090Z,26.02
2014-06-21T12:20:03.764Z,25.55
2014-06-21T12:21:08.750Z,25.35
2014-06-21T12:22:13.736Z,25.49
2014-06-21T12:23:18.426Z,25.6
2014-06-21T12:24:23.115Z,25.6
2014-06-21T12:25:27.789Z,25.86
2014-06-21T12:26:32.479Z,25.99
2014-06-21T12:27:37.170Z,26.07
2014-06-21T12:28:41.860Z,26.06
2014-06-21T12:29:46.549Z,26.1
2014-06-21T12:30:51.536Z,26.05
2014-06-21T12:31:56.210Z,25.72
2014-06-21T12:33:00.899Z,25.56
2014-06-21T12:34:05.900Z,25.52
2014-06-21T12:35:10.590Z,25.46
2014-06-21T12:36:15.279Z,25.67
2014-06-21T12:37:20.265Z,25.65
2014-06-21T12:38:25.252Z,25.93
2014-06-21T12:39:30.238Z,25.7
2014-06-21T12:40:34.930Z,25.73
2014-06-21T12:41:39.619Z,25.76
2014-06-21T12:42:44.902Z,25.73
2014-06-21T12:43:49.592Z,25.77
2014-06-21T12:44:54.578Z,26.02
2014-06-21T12:45:59.564Z,26.01
2014-06-21T12:47:04.254Z,26.12
2014-06-21T12:48:08.927Z,26.04
2014-06-21T12:49:13.913Z,26.01
2014-06-21T12:50:18.603Z,25.83
2014-06-21T12:51:23.589Z,25.81
2014-06-21T12:52:28.279Z,24.96
2014-06-21T12:53:32.968Z,24.54
2014-06-21T12:54:37.660Z,25.2
2014-06-21T12:55:42.349Z,25.33
2014-06-21T12:56:47.336Z,25.62
2014-06-21T12:57:52.321Z,25.64
2014-06-21T12:58:56.995Z,25.8
2014-06-21T13:00:01.981Z,25.47
2014-06-21T13:01:06.969Z,25.85
2014-06-21T13:02:11.658Z,25.51
2014-06-21T13:03:16.347Z,25.75
2014-06-21T13:04:21.036Z,26.02
2014-06-21T13:05:25.710Z,26.06
2014-06-21T13:06:30.731Z,25.78
2014-06-21T13:07:35.757Z,25.81
2014-06-21T13:08:40.780Z,25.78
2014-06-21T13:09:45.806Z,25.96
2014-06-21T13:10:50.823Z,25.88
2014-06-21T13:11:55.539Z,25.89
2014-06-21T13:13:00.242Z,26
2014-06-21T13:14:05.258Z,25.78
2014-06-21T13:15:09.956Z,25.89
2014-06-21T13:16:14.652Z,25.87
2014-06-21T13:17:19.345Z,26
2014-06-21T13:18:24.041Z,25.96
2014-06-21T13:19:29.032Z,25.42
2014-06-21T13:20:33.723Z,25.3
2014-06-21T13:21:38.400Z,25.48
2014-06-21T13:22:43.387Z,25.5
2014-06-21T13:23:48.078Z,25.63
2014-06-21T13:24:53.067Z,25.68
2014-06-21T13:25:57.741Z,25.8
2014-06-21T13:27:02.729Z,25.89
2014-06-21T13:28:08.012Z,25.74
2014-06-21T13:29:13.001Z,25.86
2014-06-21T13:30:17.690Z,25.96
2014-06-21T13:31:22.380Z,25.92
2014-06-21T13:32:27.070Z,25.98
2014-06-21T13:33:31.760Z,26.16
2014-06-21T13:34:36.449Z,26.25
2014-06-21T13:35:41.139Z,26.01
2014-06-21T13:36:45.829Z,26.27
2014-06-21T13:37:50.503Z,26.24
2014-06-21T13:38:55.192Z,25.9
2014-06-21T13:40:00.194Z,26
2014-06-21T13:41:04.868Z,25.91
2014-06-21T13:42:09.557Z,26.1
2014-06-21T13:43:14.247Z,26.1
2014-06-21T13:44:18.936Z,25.89
2014-06-21T13:45:23.626Z,26.25
2014-06-21T13:46:28.316Z,25.86
2014-06-21T13:47:33.301Z,25.93
2014-06-21T13:48:37.992Z,26.08
2014-06-21T13:49:42.681Z,25.92
2014-06-21T13:50:47.683Z,26.1
2014-06-21T13:51:52.357Z,26.06
2014-06-21T13:52:57.047Z,25.79
2014-06-21T13:54:01.736Z,25.69
2014-06-21T13:55:06.427Z,26.12
2014-06-21T13:56:11.115Z,26.26
2014-06-21T13:57:15.805Z,26.25
2014-06-21T13:58:19.791Z,26.36